Terminal Aerodrome Forecast
Issued by NWS Knoxville/Tri Cities, TN

Home | Current Version | Previous Version | Text Only | Print | Product List | Glossary On
Versions: 1 2 3 4 5 6 7 8 9 10 11 12 13 14 15 16 17 18 19 20 21 22 23 24 25 26 27 28 29 30 31 32
000
FTUS44 KMRX 181120
TAFTRI
TAF
KTRI 181120Z 1812/1912 00000KT 1/4SM FG VV001
      TEMPO 1812/1814 1/2SM FG BKN002
     FM181400 00000KT 2SM BR BKN007
      TEMPO 1814/1815 3SM BR BKN010
     FM181500 00000KT 4SM BR SCT015 SCT150
     FM181600 08005KT P6SM SCT150
     FM191000 06005KT 6SM -SHRA BR BKN080=

USA.gov is the U.S. government's official web portal to all federal, state and local government web resources and services.